Time;durP1;ratioP1;P1;durP2;ratioP2;P2;SDS_P1;SDS_P2;PMS_P1;PMS_P2;Temp;Humidity;BMP_temperature;BMP_pressure;BME280_temperature;BME280_humidity;BME280_pressure;Samples;Min_cycle;Max_cycle;Signal;HPM_P1;HPM_P2
2023/06/30 00:01:55;;;;;;;3.35;1.60;;;17.50;69.40;;;;;;5072164;28;20039;-64
2023/06/30 00:04:27;;;;;;;4.97;1.67;;;17.50;69.50;;;;;;5054328;28;20041;-64
2023/06/30 00:06:56;;;;;;;4.93;1.67;;;17.50;69.60;;;;;;5053588;28;20033;-64
2023/06/30 00:09:22;;;;;;;4.15;1.60;;;17.50;69.60;;;;;;5054728;28;20050;-64
2023/06/30 00:11:53;;;;;;;5.30;1.65;;;17.40;69.60;;;;;;5054300;28;20498;-64
2023/06/30 00:14:20;;;;;;;6.53;1.90;;;17.50;69.70;;;;;;5054644;28;20151;-64
2023/06/30 00:16:47;;;;;;;4.95;1.40;;;17.40;69.70;;;;;;5053825;28;20044;-64
2023/06/30 00:19:12;;;;;;;5.13;1.45;;;17.40;69.70;;;;;;5054490;28;20184;-64
2023/06/30 00:21:43;;;;;;;4.50;1.80;;;17.30;69.60;;;;;;5054606;28;20428;-64
2023/06/30 00:24:10;;;;;;;4.60;1.55;;;17.30;69.70;;;;;;5054239;28;20499;-64
2023/06/30 00:26:36;;;;;;;4.82;1.40;;;17.30;69.60;;;;;;5054059;28;20115;-64
2023/06/30 00:29:02;;;;;;;6.38;1.70;;;17.30;69.50;;;;;;5054246;28;20037;-64
2023/06/30 00:31:28;;;;;;;7.03;2.13;;;17.30;69.60;;;;;;5054096;28;20056;-64
2023/06/30 00:33:55;;;;;;;4.57;1.80;;;17.20;69.50;;;;;;5054176;28;20039;-64
2023/06/30 00:36:21;;;;;;;5.60;1.80;;;17.20;69.50;;;;;;5053926;28;20093;-64
2023/06/30 00:38:47;;;;;;;5.57;1.65;;;17.20;69.50;;;;;;5053810;28;20068;-64
2023/06/30 00:41:13;;;;;;;2.80;1.33;;;17.10;69.40;;;;;;5058264;28;20091;-64
2023/06/30 00:43:38;;;;;;;3.85;1.50;;;17.10;69.40;;;;;;5041664;28;20381;-64
2023/06/30 00:46:05;;;;;;;5.53;1.75;;;17.10;69.30;;;;;;5057846;28;20052;-64
2023/06/30 00:48:32;;;;;;;4.50;1.50;;;17.10;69.30;;;;;;5057611;28;20079;-64
2023/06/30 00:50:58;;;;;;;5.78;2.00;;;17.10;69.10;;;;;;5041443;28;20040;-64
2023/06/30 00:53:24;;;;;;;3.65;1.50;;;17.00;69.20;;;;;;5075847;28;20044;-64
2023/06/30 00:55:50;;;;;;;3.92;1.63;;;17.00;69.20;;;;;;5041640;28;20411;-64
2023/06/30 00:58:19;;;;;;;4.28;1.60;;;17.00;69.10;;;;;;5057379;28;20036;-64
2023/06/30 01:00:45;;;;;;;6.60;1.50;;;16.90;69.00;;;;;;5057649;28;20097;-64
2023/06/30 01:03:19;;;;;;;4.35;1.60;;;16.90;69.10;;;;;;5041172;28;20044;-64
2023/06/30 01:05:54;;;;;;;;;;;16.90;69.20;;;;;;5057345;28;20076;-64
2023/06/30 01:08:25;;;;;;;4.63;1.42;;;16.80;69.00;;;;;;5057400;28;20003;-64
2023/06/30 01:10:53;;;;;;;4.38;1.65;;;16.80;69.30;;;;;;5057709;28;20033;-64
2023/06/30 01:13:19;;;;;;;3.85;1.42;;;16.80;69.20;;;;;;5041390;28;20408;-64
2023/06/30 01:15:45;;;;;;;4.70;1.98;;;16.80;69.20;;;;;;5057306;28;20048;-64
2023/06/30 01:18:13;;;;;;;7.03;1.98;;;16.80;69.30;;;;;;5040883;28;20044;-64
2023/06/30 01:20:40;;;;;;;3.45;1.58;;;16.70;69.20;;;;;;5057049;28;20056;-64
2023/06/30 01:23:20;;;;;;;4.60;1.63;;;16.70;69.20;;;;;;5057239;28;20051;-64
2023/06/30 01:25:48;;;;;;;2.70;1.25;;;16.70;69.20;;;;;;5056782;28;20048;-64
2023/06/30 01:28:14;;;;;;;4.13;1.60;;;16.70;69.40;;;;;;5056889;28;20039;-64
2023/06/30 01:30:41;;;;;;;4.30;1.33;;;16.60;69.30;;;;;;5057073;28;20094;-64
2023/06/30 01:33:07;;;;;;;3.13;1.42;;;16.60;69.40;;;;;;5057098;28;20079;-64
2023/06/30 01:35:32;;;;;;;4.43;1.50;;;16.60;69.40;;;;;;5056909;28;20072;-64
2023/06/30 01:37:59;;;;;;;4.43;1.83;;;16.60;69.40;;;;;;5056994;28;20478;-64
2023/06/30 01:40:25;;;;;;;4.18;1.30;;;16.60;69.50;;;;;;5057031;28;20052;-64
2023/06/30 01:42:56;;;;;;;4.38;1.50;;;16.50;69.40;;;;;;5056949;28;20244;-64
2023/06/30 01:45:24;;;;;;;4.00;1.10;;;16.50;69.20;;;;;;5056694;28;20047;-64
2023/06/30 01:47:50;;;;;;;2.88;1.38;;;16.50;69.30;;;;;;5056671;28;20040;-64
2023/06/30 01:50:17;;;;;;;3.17;1.60;;;16.50;69.30;;;;;;5056470;28;20510;-64
2023/06/30 01:52:43;;;;;;;5.05;1.42;;;16.40;69.30;;;;;;5056781;28;20051;-64
2023/06/30 01:55:09;;;;;;;2.45;1.40;;;16.40;69.30;;;;;;5056293;28;20041;-64
2023/06/30 01:57:35;;;;;;;5.40;1.60;;;16.40;69.30;;;;;;5056786;28;20037;-64
2023/06/30 02:00:01;;;;;;;5.53;1.23;;;16.40;69.30;;;;;;5074585;28;20107;-64
2023/06/30 02:02:27;;;;;;;4.63;1.63;;;16.30;69.20;;;;;;5056565;28;20484;-64
2023/06/30 02:04:52;;;;;;;3.03;1.48;;;16.30;69.30;;;;;;5056165;28;20052;-63
2023/06/30 02:07:18;;;;;;;7.28;1.30;;;16.30;69.20;;;;;;5056561;28;20518;-63
2023/06/30 02:09:44;;;;;;;3.08;1.38;;;16.20;69.20;;;;;;5056089;28;20067;-63
2023/06/30 02:12:10;;;;;;;3.17;1.40;;;16.30;69.70;;;;;;5056438;28;20048;-63
2023/06/30 02:14:35;;;;;;;2.95;1.27;;;16.20;69.30;;;;;;5056366;28;20048;-64
2023/06/30 02:17:01;;;;;;;3.55;1.30;;;16.20;69.40;;;;;;5039601;28;20407;-63
2023/06/30 02:19:27;;;;;;;3.25;1.02;;;16.20;69.50;;;;;;5056136;28;20059;-63
2023/06/30 02:21:52;;;;;;;4.57;1.45;;;16.20;69.50;;;;;;5074349;28;20029;-63
2023/06/30 02:24:18;;;;;;;4.57;1.63;;;16.10;69.50;;;;;;5073660;28;20040;-63
2023/06/30 02:26:47;;;;;;;3.38;1.80;;;16.10;69.40;;;;;;5056134;28;20060;-63
2023/06/30 02:29:13;;;;;;;3.50;1.38;;;16.10;69.50;;;;;;5056050;28;20051;-63
2023/06/30 02:31:39;;;;;;;2.97;1.27;;;16.10;69.50;;;;;;5039544;28;20032;-63
2023/06/30 02:34:04;;;;;;;4.25;1.52;;;16.00;69.50;;;;;;5055930;28;20037;-63
2023/06/30 02:36:30;;;;;;;5.93;2.10;;;16.00;69.70;;;;;;5039405;28;20460;-63
2023/06/30 02:38:56;;;;;;;4.15;1.48;;;16.00;69.70;;;;;;5056291;28;20093;-63
2023/06/30 02:41:21;;;;;;;6.95;1.98;;;16.00;69.70;;;;;;5055662;28;20392;-63
2023/06/30 02:43:47;;;;;;;3.67;1.35;;;16.00;69.70;;;;;;5055799;28;20393;-64
2023/06/30 02:46:13;;;;;;;2.78;1.20;;;15.90;69.60;;;;;;5038561;28;20032;-64
2023/06/30 02:48:38;;;;;;;4.40;1.30;;;15.90;69.70;;;;;;5055882;28;20101;-64
2023/06/30 02:51:04;;;;;;;3.38;1.40;;;15.90;69.70;;;;;;5055540;28;20044;-64
2023/06/30 02:53:30;;;;;;;2.75;1.50;;;15.90;69.70;;;;;;5055759;28;20044;-64
2023/06/30 02:55:55;;;;;;;2.72;1.40;;;15.80;69.80;;;;;;5038448;28;20484;-64
2023/06/30 02:58:22;;;;;;;4.03;1.50;;;15.80;69.70;;;;;;5038898;28;20040;-64
2023/06/30 03:00:49;;;;;;;6.10;2.22;;;15.80;69.70;;;;;;5039399;28;20475;-64
2023/06/30 03:03:15;;;;;;;4.57;1.35;;;15.80;69.70;;;;;;5054909;28;20040;-64
2023/06/30 03:05:40;;;;;;;3.83;1.55;;;15.80;69.80;;;;;;5054631;28;20063;-64
2023/06/30 03:08:06;;;;;;;2.33;1.25;;;15.70;69.70;;;;;;5073405;28;20487;-64
2023/06/30 03:10:32;;;;;;;2.83;1.33;;;15.70;69.70;;;;;;5055660;28;20042;-64
2023/06/30 03:12:57;;;;;;;2.72;1.50;;;15.70;69.70;;;;;;5055232;28;20462;-67
2023/06/30 03:15:23;;;;;;;4.10;1.88;;;15.70;69.60;;;;;;5038687;28;20044;-68
2023/06/30 03:17:49;;;;;;;5.85;2.40;;;15.40;69.50;;;;;;5038574;28;20083;-68
2023/06/30 03:20:15;;;;;;;5.53;1.73;;;15.60;69.50;;;;;;5054823;28;20044;-68
2023/06/30 03:22:41;;;;;;;3.80;1.85;;;15.60;69.50;;;;;;5054794;28;20055;-68
2023/06/30 03:25:08;;;;;;;4.18;1.80;;;15.60;69.50;;;;;;5054974;28;20040;-68
2023/06/30 03:27:34;;;;;;;4.30;1.33;;;15.60;69.50;;;;;;5055344;28;20093;-64
2023/06/30 03:30:03;;;;;;;4.63;1.95;;;15.50;69.50;;;;;;5055349;28;20506;-64
2023/06/30 03:32:28;;;;;;;4.03;1.48;;;15.50;69.50;;;;;;5072711;28;20041;-64
2023/06/30 03:34:54;;;;;;;2.47;1.20;;;15.50;69.50;;;;;;5054494;28;20106;-64
2023/06/30 03:37:20;;;;;;;2.70;1.38;;;15.40;69.40;;;;;;5054659;28;20045;-64
2023/06/30 03:39:46;;;;;;;2.53;1.23;;;15.40;69.40;;;;;;5072558;28;20040;-64
2023/06/30 03:42:12;;;;;;;2.20;1.42;;;15.40;69.40;;;;;;5055096;28;20060;-64
2023/06/30 03:44:38;;;;;;;3.72;1.70;;;15.40;69.40;;;;;;5054396;28;20365;-64
2023/06/30 03:47:04;;;;;;;3.78;1.20;;;15.40;69.50;;;;;;5054662;28;20048;-64
2023/06/30 03:49:30;;;;;;;3.47;1.40;;;15.40;69.50;;;;;;5054517;28;20479;-64
2023/06/30 03:51:55;;;;;;;2.72;1.25;;;15.30;69.50;;;;;;5054614;28;20047;-64
2023/06/30 03:54:21;;;;;;;6.75;1.58;;;15.30;69.50;;;;;;5054048;28;20041;-64
2023/06/30 03:56:47;;;;;;;5.15;1.67;;;15.30;69.50;;;;;;5054671;28;20076;-64
2023/06/30 03:59:13;;;;;;;4.57;1.33;;;15.30;69.60;;;;;;5037825;28;20062;-64
2023/06/30 04:01:40;;;;;;;3.45;1.42;;;15.20;69.60;;;;;;5054517;28;20044;-64
2023/06/30 04:04:06;;;;;;;4.30;1.35;;;15.20;69.50;;;;;;5053615;28;20072;-64
2023/06/30 04:06:33;;;;;;;2.90;0.90;;;15.20;69.60;;;;;;5037629;28;20060;-64
2023/06/30 04:08:59;;;;;;;2.22;1.33;;;15.20;69.70;;;;;;5054308;28;20131;-64
2023/06/30 04:11:25;;;;;;;6.75;1.38;;;15.20;69.80;;;;;;5054862;28;20044;-64
2023/06/30 04:13:51;;;;;;;4.32;1.55;;;15.20;69.90;;;;;;5053941;28;20507;-64
2023/06/30 04:16:20;;;;;;;3.15;1.38;;;15.10;69.80;;;;;;5054079;28;20045;-64
2023/06/30 04:18:45;;;;;;;3.72;1.55;;;15.10;69.90;;;;;;5054191;28;20052;-64
2023/06/30 04:21:11;;;;;;;3.63;1.20;;;15.10;70.00;;;;;;5054190;28;20040;-64
2023/06/30 04:23:37;;;;;;;4.82;2.30;;;15.10;70.10;;;;;;5054197;28;20125;-64
2023/06/30 04:26:04;;;;;;;7.32;1.90;;;15.10;70.20;;;;;;5053880;28;20080;-64
2023/06/30 04:28:30;;;;;;;4.28;1.75;;;15.10;70.30;;;;;;5054626;28;20040;-64
2023/06/30 04:30:58;;;;;;;3.15;1.90;;;15.10;70.50;;;;;;5054234;28;20045;-64
2023/06/30 04:33:24;;;;;;;4.57;2.05;;;15.10;70.70;;;;;;5037505;28;20115;-68
2023/06/30 04:35:50;;;;;;;3.85;2.15;;;15.10;70.80;;;;;;5053823;28;20115;-68
2023/06/30 04:38:19;;;;;;;3.47;1.98;;;15.10;70.90;;;;;;5071744;28;20044;-68
2023/06/30 04:40:46;;;;;;;6.28;2.45;;;15.10;71.10;;;;;;5050402;28;20672;-68
2023/06/30 04:43:12;;;;;;;6.60;2.20;;;15.10;71.20;;;;;;5037578;28;20052;-68
2023/06/30 04:45:41;;;;;;;6.15;2.78;;;15.10;71.40;;;;;;5053764;28;20040;-68
2023/06/30 04:48:10;;;;;;;5.97;2.67;;;15.10;71.60;;;;;;5053905;28;20498;-68
2023/06/30 04:50:36;;;;;;;5.40;2.92;;;15.10;71.70;;;;;;5053772;28;20044;-68
2023/06/30 04:53:02;;;;;;;5.45;2.47;;;15.10;71.80;;;;;;5054209;28;20040;-68
2023/06/30 04:55:28;;;;;;;7.13;2.70;;;15.20;71.90;;;;;;5053926;28;20500;-68
2023/06/30 04:57:56;;;;;;;6.45;3.53;;;15.20;72.00;;;;;;5053678;28;20128;-68
2023/06/30 05:00:26;;;;;;;5.07;2.40;;;15.20;72.20;;;;;;5037262;28;20049;-68
2023/06/30 05:02:52;;;;;;;6.72;3.10;;;15.30;72.50;;;;;;5054624;28;20368;-68
2023/06/30 05:05:19;;;;;;;7.18;3.40;;;15.20;72.70;;;;;;5052458;28;20102;-68
2023/06/30 05:07:46;;;;;;;6.15;2.53;;;15.30;72.90;;;;;;5041706;28;20048;-68
2023/06/30 05:10:12;;;;;;;5.05;2.03;;;15.30;72.90;;;;;;5037133;28;20044;-68
2023/06/30 05:12:37;;;;;;;6.40;2.55;;;15.40;73.00;;;;;;5053432;28;20051;-69
2023/06/30 05:15:04;;;;;;;5.93;2.78;;;15.40;73.00;;;;;;5037463;28;20443;-69
2023/06/30 05:17:29;;;;;;;8.45;2.40;;;15.50;73.30;;;;;;5036920;28;20036;-69
2023/06/30 05:19:55;;;;;;;3.92;1.95;;;15.50;73.30;;;;;;5054030;28;20029;-69
2023/06/30 05:22:21;;;;;;;5.82;2.15;;;15.60;73.10;;;;;;5053646;28;20047;-69
2023/06/30 05:24:47;;;;;;;8.93;2.40;;;15.60;73.40;;;;;;5053969;28;20041;-69
2023/06/30 05:27:14;;;;;;;4.95;2.80;;;15.80;73.70;;;;;;5040669;28;20044;-69
2023/06/30 05:29:39;;;;;;;5.43;2.33;;;15.90;73.90;;;;;;5040590;28;20400;-69
2023/06/30 05:32:06;;;;;;;4.75;2.35;;;16.10;74.70;;;;;;5075114;28;20032;-69
2023/06/30 05:34:32;;;;;;;8.88;2.63;;;16.50;74.70;;;;;;5075050;28;20044;-69
2023/06/30 05:36:57;;;;;;;3.72;1.85;;;17.00;74.40;;;;;;5040838;28;20040;-64
2023/06/30 05:39:23;;;;;;;8.05;2.47;;;17.60;73.60;;;;;;5057227;28;20044;-65
2023/06/30 05:41:49;;;;;;;4.35;1.80;;;18.20;72.30;;;;;;5057037;28;20051;-64
2023/06/30 05:44:14;;;;;;;4.60;1.63;;;18.90;71.20;;;;;;5039396;28;20549;-65
2023/06/30 05:46:40;;;;;;;5.15;1.52;;;19.50;69.40;;;;;;5056061;28;20037;-64
2023/06/30 05:49:06;;;;;;;7.15;2.30;;;20.10;67.60;;;;;;5056843;28;20174;-65
2023/06/30 05:51:33;;;;;;;4.63;1.70;;;20.60;65.60;;;;;;5040351;28;20087;-65
2023/06/30 05:54:00;;;;;;;4.40;1.70;;;21.20;64.20;;;;;;5057005;28;20495;-65
2023/06/30 05:56:25;;;;;;;5.00;1.30;;;21.60;63.20;;;;;;5056685;28;20377;-64
2023/06/30 05:58:51;;;;;;;7.28;1.40;;;22.10;61.90;;;;;;5056643;28;20056;-65
2023/06/30 06:01:17;;;;;;;6.10;1.80;;;22.50;60.10;;;;;;5074327;28;20036;-64
2023/06/30 06:03:43;;;;;;;5.35;1.10;;;22.80;59.10;;;;;;5039686;28;20124;-65
2023/06/30 06:06:08;;;;;;;5.03;0.98;;;23.10;58.40;;;;;;5040148;28;20076;-65
2023/06/30 06:08:34;;;;;;;6.32;1.45;;;23.50;57.30;;;;;;5056794;28;20068;-65
2023/06/30 06:11:00;;;;;;;4.80;1.25;;;23.80;56.40;;;;;;5056426;28;20458;-65
2023/06/30 06:13:33;;;;;;;4.22;1.23;;;24.10;55.40;;;;;;5056580;28;20097;-69
2023/06/30 06:15:59;;;;;;;4.95;1.13;;;24.40;54.20;;;;;;5055990;28;20052;-69
2023/06/30 06:18:25;;;;;;;3.47;1.15;;;24.60;53.70;;;;;;5056208;28;20048;-69
2023/06/30 06:20:50;;;;;;;4.18;1.10;;;24.70;53.00;;;;;;5074241;28;20047;-69
2023/06/30 06:23:16;;;;;;;5.75;1.55;;;24.80;52.50;;;;;;5055479;28;20043;-70
2023/06/30 06:25:42;;;;;;;5.32;1.00;;;24.90;51.70;;;;;;5056220;28;20054;-69
2023/06/30 06:28:07;;;;;;;3.28;1.05;;;25.00;51.20;;;;;;5056182;28;20040;-69
2023/06/30 06:30:33;;;;;;;4.55;1.10;;;25.10;50.80;;;;;;5056509;28;20143;-69
2023/06/30 06:32:59;;;;;;;3.92;1.25;;;25.10;50.40;;;;;;5054905;28;20041;-69
2023/06/30 06:35:24;;;;;;;8.13;1.40;;;25.20;50.10;;;;;;5023176;28;20040;-69
2023/06/30 06:37:50;;;;;;;2.75;0.70;;;25.20;49.90;;;;;;5055860;28;20040;-69
2023/06/30 06:40:16;;;;;;;6.05;1.55;;;25.30;49.90;;;;;;5039342;28;20036;-69
2023/06/30 06:42:41;;;;;;;6.13;1.33;;;25.30;49.50;;;;;;5056262;28;20040;-69
2023/06/30 06:45:07;;;;;;;4.53;1.20;;;25.20;49.20;;;;;;5039291;28;20513;-69
2023/06/30 06:48:11;;;;;;;5.18;1.40;;;25.30;49.20;;;;;;5056207;28;20049;-69
2023/06/30 06:50:36;;;;;;;5.20;1.25;;;25.30;49.40;;;;;;5055730;28;20048;-69
2023/06/30 06:53:02;;;;;;;5.82;1.52;;;25.30;48.80;;;;;;5055545;28;20048;-69
2023/06/30 06:55:28;;;;;;;2.97;1.42;;;25.30;48.50;;;;;;5055943;28;20076;-69
2023/06/30 06:57:54;;;;;;;3.22;0.93;;;25.30;48.40;;;;;;5037876;28;20043;-69
2023/06/30 07:00:20;;;;;;;3.58;1.42;;;25.30;47.90;;;;;;5055955;28;20131;-69
2023/06/30 07:02:46;;;;;;;2.80;1.00;;;25.40;47.50;;;;;;5055672;28;20149;-69
2023/06/30 07:05:11;;;;;;;3.38;1.23;;;25.40;47.40;;;;;;5055072;28;20519;-69
2023/06/30 07:07:37;;;;;;;4.32;1.10;;;25.50;46.80;;;;;;5055062;28;20488;-70
2023/06/30 07:10:03;;;;;;;2.28;0.80;;;25.60;46.40;;;;;;5055360;28;20111;-69
2023/06/30 07:12:29;;;;;;;4.75;1.30;;;25.50;46.10;;;;;;5055503;28;20071;-69
2023/06/30 07:14:55;;;;;;;5.10;0.80;;;25.50;45.90;;;;;;5055652;28;20167;-69
2023/06/30 07:17:21;;;;;;;2.75;0.95;;;25.50;46.20;;;;;;5038252;28;20123;-69
2023/06/30 07:19:47;;;;;;;4.07;1.20;;;25.50;45.70;;;;;;5055006;28;20123;-70
2023/06/30 07:22:12;;;;;;;3.95;1.10;;;25.50;45.60;;;;;;5038472;28;20076;-70
2023/06/30 07:24:38;;;;;;;3.92;1.20;;;25.50;45.80;;;;;;5055320;28;20471;-69
2023/06/30 07:27:04;;;;;;;3.00;0.90;;;25.50;45.60;;;;;;5054615;28;20047;-70
2023/06/30 07:29:30;;;;;;;3.72;1.25;;;25.50;45.20;;;;;;5055007;28;20046;-70
2023/06/30 07:31:55;;;;;;;2.75;1.05;;;25.40;44.80;;;;;;5055216;28;20037;-70
2023/06/30 07:34:23;;;;;;;4.50;1.23;;;25.40;45.00;;;;;;5072743;28;20086;-69
2023/06/30 07:36:51;;;;;;;3.88;0.80;;;25.30;45.00;;;;;;5054935;28;20045;-70
2023/06/30 07:39:17;;;;;;;3.20;1.05;;;25.20;44.50;;;;;;5071472;28;20106;-70
2023/06/30 07:41:42;;;;;;;3.33;0.95;;;25.20;44.30;;;;;;5054776;28;20128;-69
2023/06/30 07:44:11;;;;;;;4.00;0.93;;;25.10;44.50;;;;;;5053326;28;20119;-70
2023/06/30 07:46:38;;;;;;;1.83;0.80;;;25.20;44.60;;;;;;5054815;28;20036;-70
2023/06/30 07:49:04;;;;;;;5.25;1.10;;;25.20;44.40;;;;;;5066950;28;20052;-68
2023/06/30 07:51:30;;;;;;;2.40;0.73;;;25.30;44.20;;;;;;5072240;28;20507;-69
2023/06/30 07:53:56;;;;;;;5.00;1.40;;;25.40;44.30;;;;;;5036527;28;20039;-68
2023/06/30 07:56:23;;;;;;;4.97;1.02;;;25.50;44.10;;;;;;5053078;28;20033;-69
2023/06/30 07:58:48;;;;;;;6.38;1.35;;;25.60;44.40;;;;;;5053739;28;20361;-68
2023/06/30 08:01:14;;;;;;;2.92;1.20;;;25.80;43.70;;;;;;5052983;28;20047;-69
2023/06/30 08:03:40;;;;;;;3.55;0.93;;;25.90;43.90;;;;;;5035302;28;20036;-70
2023/06/30 08:06:05;;;;;;;4.43;1.13;;;26.10;44.10;;;;;;5036034;28;20067;-68
2023/06/30 08:08:31;;;;;;;4.88;0.98;;;26.20;43.40;;;;;;5052649;28;20062;-69
2023/06/30 08:10:58;;;;;;;4.28;1.48;;;26.30;43.20;;;;;;5053045;28;20043;-69
2023/06/30 08:13:25;;;;;;;3.78;0.90;;;26.40;42.40;;;;;;5036677;28;20093;-69
2023/06/30 08:15:50;;;;;;;4.65;0.90;;;26.50;42.70;;;;;;5052794;28;20546;-65
2023/06/30 08:18:16;;;;;;;4.07;1.08;;;26.60;41.90;;;;;;5053602;28;20045;-65
2023/06/30 08:20:42;;;;;;;2.80;0.82;;;26.70;41.70;;;;;;5050706;28;20047;-65
2023/06/30 08:23:10;;;;;;;2.55;1.20;;;26.70;41.80;;;;;;5053469;28;20483;-65
2023/06/30 08:25:36;;;;;;;2.50;0.80;;;26.70;41.80;;;;;;5053875;28;20052;-65
2023/06/30 08:28:02;;;;;;;3.55;1.08;;;26.80;41.70;;;;;;5053680;28;20080;-64
2023/06/30 08:30:27;;;;;;;3.10;0.90;;;26.80;41.60;;;;;;5053215;28;20503;-65
2023/06/30 08:32:54;;;;;;;4.07;1.23;;;26.80;41.10;;;;;;5053362;28;20032;-65
2023/06/30 08:35:20;;;;;;;2.65;0.98;;;26.90;40.90;;;;;;5052988;28;20052;-65
2023/06/30 08:37:46;;;;;;;3.28;1.00;;;26.90;41.00;;;;;;5053326;28;20052;-65
2023/06/30 08:40:12;;;;;;;3.10;0.90;;;27.00;41.00;;;;;;5035969;28;20454;-65
2023/06/30 08:42:43;;;;;;;5.07;1.10;;;27.10;40.40;;;;;;5052107;28;20545;-65
2023/06/30 08:45:12;;;;;;;4.85;1.10;;;27.20;40.30;;;;;;5053393;28;20436;-65
2023/06/30 08:47:38;;;;;;;2.42;0.90;;;27.40;40.30;;;;;;5051268;28;20083;-65
2023/06/30 08:50:06;;;;;;;2.72;1.10;;;27.50;40.30;;;;;;5053181;28;20086;-65
2023/06/30 08:52:33;;;;;;;2.95;1.20;;;27.60;40.10;;;;;;5031500;28;20119;-65
2023/06/30 08:55:01;;;;;;;2.50;0.65;;;27.50;39.60;;;;;;5053212;28;20480;-65
2023/06/30 08:57:28;;;;;;;3.88;0.90;;;27.50;39.60;;;;;;5052541;28;20056;-65
2023/06/30 08:59:54;;;;;;;2.80;0.85;;;27.50;39.40;;;;;;5053031;28;20079;-65
2023/06/30 09:02:22;;;;;;;3.63;0.80;;;27.50;39.00;;;;;;5056561;28;20080;-66
2023/06/30 09:04:48;;;;;;;2.95;0.70;;;27.50;38.90;;;;;;5057502;28;20557;-65
2023/06/30 09:07:25;;;;;;;2.25;0.80;;;27.50;39.50;;;;;;5057036;28;20127;-65
2023/06/30 09:09:56;;;;;;;4.28;0.95;;;27.60;39.50;;;;;;5049086;28;20060;-65
2023/06/30 09:12:22;;;;;;;3.00;0.80;;;27.70;39.20;;;;;;5057414;28;20544;-65
2023/06/30 09:14:52;;;;;;;3.75;0.90;;;27.70;39.20;;;;;;5057659;28;20107;-65
2023/06/30 09:17:18;;;;;;;2.95;1.05;;;27.70;39.50;;;;;;5041067;28;20040;-65
2023/06/30 09:19:44;;;;;;;3.20;0.75;;;27.60;39.30;;;;;;5024432;28;20461;-65
2023/06/30 09:22:11;;;;;;;2.13;0.80;;;27.60;39.00;;;;;;5057289;28;20127;-65
2023/06/30 09:24:37;;;;;;;2.65;0.80;;;27.50;38.70;;;;;;5057468;28;20048;-64
2023/06/30 09:27:02;;;;;;;3.22;0.93;;;27.50;39.00;;;;;;5057077;28;20044;-65
2023/06/30 09:29:35;;;;;;;3.00;1.10;;;27.40;39.20;;;;;;5056360;28;20044;-65
2023/06/30 09:32:02;;;;;;;3.38;0.98;;;27.30;39.10;;;;;;5056080;28;20455;-65
2023/06/30 09:34:28;;;;;;;4.38;1.33;;;27.30;39.30;;;;;;5056163;28;21417;-65
2023/06/30 09:36:54;;;;;;;4.05;1.00;;;27.30;38.90;;;;;;5053526;28;20120;-65
2023/06/30 09:39:21;;;;;;;4.57;1.00;;;27.30;38.60;;;;;;5055957;28;20041;-65
2023/06/30 09:41:50;;;;;;;3.58;0.98;;;27.40;38.50;;;;;;5068460;28;20037;-65
2023/06/30 09:44:20;;;;;;;3.92;1.00;;;27.50;38.20;;;;;;5056983;28;20048;-65
2023/06/30 09:46:50;;;;;;;2.67;0.90;;;27.50;37.50;;;;;;5056319;28;20040;-64
2023/06/30 09:49:32;;;;;;;3.03;0.85;;;27.60;37.70;;;;;;5055788;28;20498;-65
2023/06/30 09:51:59;;;;;;;3.60;1.13;;;27.50;37.90;;;;;;5055475;28;20040;-65
2023/06/30 09:54:26;;;;;;;2.47;0.73;;;27.50;38.10;;;;;;5055530;28;20043;-65
2023/06/30 09:57:05;;;;;;;7.10;1.35;;;27.40;37.90;;;;;;5055961;28;20079;-65
2023/06/30 09:59:32;;;;;;;4.38;1.85;;;27.30;37.30;;;;;;5051478;28;20437;-65
2023/06/30 10:01:59;;;;;;;3.03;0.90;;;27.30;37.40;;;;;;5066088;28;20456;-65
2023/06/30 10:04:27;;;;;;;2.28;0.80;;;27.30;37.70;;;;;;5055541;28;20552;-65
2023/06/30 10:06:54;;;;;;;3.15;0.90;;;27.30;37.50;;;;;;5073090;28;20137;-65
2023/06/30 10:09:21;;;;;;;4.38;1.00;;;27.20;37.60;;;;;;5073783;28;20040;-64
2023/06/30 10:11:58;;;;;;;3.17;1.00;;;27.20;37.60;;;;;;5052923;28;20476;-64
2023/06/30 10:14:30;;;;;;;5.63;1.17;;;27.20;37.70;;;;;;5053190;28;20036;-64
2023/06/30 10:16:58;;;;;;;3.00;0.90;;;27.10;37.90;;;;;;5055344;28;20045;-64
2023/06/30 10:19:25;;;;;;;3.50;1.00;;;27.10;38.50;;;;;;5052998;28;20052;-64
2023/06/30 10:21:52;;;;;;;3.38;1.05;;;27.10;38.50;;;;;;5071739;28;20032;-64
2023/06/30 10:24:23;;;;;;;2.65;0.90;;;27.20;39.00;;;;;;5055270;28;20044;-65
2023/06/30 10:26:50;;;;;;;5.10;0.80;;;27.20;38.40;;;;;;5054926;28;20377;-64
2023/06/30 10:29:16;;;;;;;2.30;0.80;;;27.30;37.80;;;;;;5054446;28;20862;-65
2023/06/30 10:31:42;;;;;;;2.95;0.93;;;27.30;37.60;;;;;;5053054;28;20048;-64
2023/06/30 10:34:10;;;;;;;3.00;0.98;;;27.40;37.60;;;;;;5055604;28;20045;-65
2023/06/30 10:36:37;;;;;;;4.20;1.17;;;27.40;37.90;;;;;;5052468;28;20046;-66
2023/06/30 10:39:03;;;;;;;2.85;1.23;;;27.50;37.20;;;;;;5054019;28;20070;-66
2023/06/30 10:41:29;;;;;;;1.98;0.80;;;27.60;36.50;;;;;;5054836;28;20432;-67
2023/06/30 10:44:04;;;;;;;4.28;1.00;;;27.60;36.20;;;;;;5055043;28;20044;-67
2023/06/30 10:46:51;;;;;;;3.15;1.00;;;27.60;35.40;;;;;;5052375;28;20053;-66
2023/06/30 10:49:34;;;;;;;2.78;1.20;;;27.50;36.00;;;;;;5053574;28;20033;-67
2023/06/30 10:52:06;;;;;;;5.05;1.30;;;27.50;36.20;;;;;;5054847;28;20071;-67
2023/06/30 10:54:42;;;;;;;3.17;1.20;;;27.40;36.40;;;;;;5054189;28;20399;-67
2023/06/30 10:57:15;;;;;;;3.67;1.10;;;27.30;36.70;;;;;;5054585;28;20510;-68
2023/06/30 10:59:46;;;;;;;3.78;1.00;;;27.20;36.50;;;;;;5038357;28;20551;-67
2023/06/30 11:02:18;;;;;;;2.53;1.02;;;27.20;36.10;;;;;;5072108;28;20133;-67
2023/06/30 11:04:45;;;;;;;3.70;1.60;;;27.10;36.90;;;;;;5055082;28;20498;-67
2023/06/30 11:07:25;;;;;;;4.28;0.90;;;27.10;36.90;;;;;;5051706;28;20057;-67
2023/06/30 11:09:51;;;;;;;5.38;1.23;;;27.20;36.90;;;;;;5053389;28;20509;-67
2023/06/30 11:12:24;;;;;;;3.47;1.20;;;27.20;36.30;;;;;;5037719;28;20124;-67
2023/06/30 11:14:56;;;;;;;2.25;1.05;;;27.20;36.60;;;;;;5052823;28;20048;-67
2023/06/30 11:17:23;;;;;;;4.18;1.20;;;27.10;36.60;;;;;;5037555;28;20040;-67
2023/06/30 11:19:59;;;;;;;3.42;1.10;;;27.20;37.20;;;;;;5036857;28;20044;-67
2023/06/30 11:22:29;;;;;;;3.58;1.30;;;27.30;37.50;;;;;;5053759;28;20411;-67
2023/06/30 11:24:55;;;;;;;2.72;0.90;;;27.30;37.80;;;;;;5052004;28;20044;-67
2023/06/30 11:27:21;;;;;;;3.25;1.50;;;27.30;37.80;;;;;;5053090;28;20047;-67
2023/06/30 11:29:53;;;;;;;2.88;0.95;;;27.40;37.60;;;;;;5053959;28;20518;-67
2023/06/30 11:32:25;;;;;;;3.33;1.20;;;27.40;37.30;;;;;;5053223;28;20043;-68
2023/06/30 11:34:51;;;;;;;3.85;1.42;;;27.40;36.50;;;;;;5054254;28;20448;-67
2023/06/30 11:37:18;;;;;;;3.05;1.10;;;27.40;37.10;;;;;;5055037;28;20072;-67
2023/06/30 11:39:55;;;;;;;3.15;1.15;;;27.40;36.70;;;;;;5055203;28;20483;-67
2023/06/30 11:42:21;;;;;;;2.50;1.00;;;27.50;37.00;;;;;;5035891;28;20037;-67
2023/06/30 11:44:49;;;;;;;2.42;1.15;;;27.40;36.80;;;;;;5054081;28;20093;-67
2023/06/30 11:47:15;;;;;;;2.65;0.80;;;27.40;36.90;;;;;;5037155;28;20084;-67
2023/06/30 11:49:41;;;;;;;2.55;1.13;;;27.40;37.10;;;;;;5071368;28;20071;-67
2023/06/30 11:52:07;;;;;;;4.57;1.40;;;27.40;37.10;;;;;;5052641;28;20459;-67
2023/06/30 11:54:33;;;;;;;3.55;1.00;;;27.40;37.00;;;;;;5054057;28;20426;-67
2023/06/30 11:57:00;;;;;;;2.75;1.10;;;27.40;37.50;;;;;;5053424;28;20480;-67
2023/06/30 11:59:26;;;;;;;2.88;1.23;;;27.40;38.00;;;;;;5053774;28;20416;-67
2023/06/30 12:01:53;;;;;;;3.67;1.15;;;27.40;37.80;;;;;;5053236;28;20045;-67
2023/06/30 12:04:21;;;;;;;2.65;1.08;;;27.50;37.70;;;;;;5051821;28;20384;-68
2023/06/30 12:06:47;;;;;;;2.15;1.10;;;27.50;37.40;;;;;;5053200;28;20051;-68
2023/06/30 12:09:13;;;;;;;4.15;1.42;;;27.60;37.50;;;;;;5053697;28;20455;-68
2023/06/30 12:11:45;;;;;;;2.15;0.98;;;27.60;37.20;;;;;;5053457;28;20044;-68
2023/06/30 12:14:15;;;;;;;1.75;1.00;;;27.60;36.80;;;;;;5053880;28;20040;-68
2023/06/30 12:16:42;;;;;;;2.65;1.05;;;27.70;36.80;;;;;;5052917;28;20072;-68
2023/06/30 12:19:08;;;;;;;2.05;1.05;;;27.70;36.90;;;;;;5051091;28;20047;-69
2023/06/30 12:21:35;;;;;;;2.22;1.08;;;27.60;37.00;;;;;;5053182;28;20045;-68
2023/06/30 12:24:03;;;;;;;3.08;1.00;;;27.60;36.80;;;;;;5053482;28;20037;-68
2023/06/30 12:26:29;;;;;;;3.83;1.08;;;27.50;37.30;;;;;;5053355;28;20090;-68
2023/06/30 12:29:05;;;;;;;3.00;1.27;;;27.50;37.60;;;;;;5053634;28;20032;-69
2023/06/30 12:31:33;;;;;;;5.10;1.65;;;27.50;37.60;;;;;;5053150;28;20115;-68
2023/06/30 12:33:59;;;;;;;4.40;1.70;;;27.50;37.30;;;;;;5053749;28;20036;-68
2023/06/30 12:36:29;;;;;;;5.82;1.60;;;27.40;37.50;;;;;;5057014;28;20422;-68
2023/06/30 12:38:55;;;;;;;3.65;1.58;;;27.40;37.40;;;;;;5057122;28;20090;-68
2023/06/30 12:41:21;;;;;;;2.97;1.30;;;27.40;37.80;;;;;;5057221;28;20048;-68
2023/06/30 12:43:48;;;;;;;3.55;1.45;;;27.40;37.70;;;;;;5057679;28;20033;-68
2023/06/30 12:46:14;;;;;;;3.90;1.23;;;27.40;36.80;;;;;;5040989;28;20123;-68
2023/06/30 12:48:40;;;;;;;4.65;1.67;;;27.40;37.30;;;;;;5056960;28;20116;-68